Time;durP1;ratioP1;P1;durP2;ratioP2;P2;SDS_P1;SDS_P2;PMS_P1;PMS_P2;Temp;Humidity;BMP_temperature;BMP_pressure;BME280_temperature;BME280_humidity;BME280_pressure;Samples;Min_cycle;Max_cycle;Signal;HPM_P1;HPM_P2
2022/09/27 00:01:15;;;;;;;;;;;;;;;20.74;nan;94174.00;5618375;28;1544;-66
2022/09/27 00:04:00;;;;;;;;;;;;;;;20.74;nan;94257.44;5620938;28;1534;-67
2022/09/27 00:06:43;;;;;;;;;;;;;;;20.72;nan;94259.50;5601705;28;1577;-66
2022/09/27 00:09:26;;;;;;;;;;;;;;;-145.88;100.00;58037.16;5607864;28;1443;-66
2022/09/27 00:12:09;;;;;;;;;;;;;;;20.75;nan;94259.06;5609712;28;1718;-67
2022/09/27 00:14:52;;;;;;;;;;;;;;;20.73;nan;94238.97;5613244;28;1549;-64
2022/09/27 00:17:35;;;;;;;;;;;;;;;20.72;nan;94208.00;5601510;28;2000;-64
2022/09/27 00:20:20;;;;;;;;;;;;;;;20.71;nan;94247.19;5599586;28;1719;-63
2022/09/27 00:23:03;;;;;;;;;;;;;;;20.71;nan;94207.16;5601953;28;1614;-66
2022/09/27 00:25:54;;;;;;;;;;;;;;;-145.88;100.00;58037.16;5598337;28;1763;-64
2022/09/27 00:28:37;;;;;;;;;;;;;;;20.72;nan;94258.72;5595804;28;1763;-65
2022/09/27 00:31:21;;;;;;;;;;;;;;;20.71;nan;94257.06;5608717;28;1606;-67
2022/09/27 00:34:05;;;;;;;;;;;;;;;20.70;nan;94256.25;5610010;28;1596;-74
2022/09/27 00:36:49;;;;;;;;;;;;;;;20.72;nan;94254.19;5603763;28;1934;-68
2022/09/27 00:39:32;;;;;;;;;;;;;;;20.74;nan;94268.13;5598859;28;1692;-68
2022/09/27 00:42:15;;;;;;;;;;;;;;;20.75;nan;94253.72;5612930;28;1642;-68
2022/09/27 00:45:16;;;;;;;;;;;;;;;20.75;nan;94221.69;5620318;28;1707;-68
2022/09/27 00:48:01;;;;;;;;;;;;;;;20.77;nan;94267.66;5617696;28;1767;-69
2022/09/27 00:50:45;;;;;;;;;;;;;;;20.79;nan;94281.56;5594671;28;1330;-67
2022/09/27 00:53:31;;;;;;;;;;;;;;;20.79;nan;94286.09;5602717;28;1631;-67
2022/09/27 00:56:17;;;;;;;;;;;;;;;20.79;nan;94275.41;5620155;28;1975;-67
2022/09/27 00:59:03;;;;;;;;;;;;;;;20.81;nan;94262.66;5614356;28;1869;-70
2022/09/27 01:01:46;;;;;;;;;;;;;;;20.81;nan;94246.63;5598087;28;1875;-72
2022/09/27 01:04:31;;;;;;;;;;;;;;;20.81;nan;94251.97;5598244;28;1575;-66
2022/09/27 01:07:14;;;;;;;;;;;;;;;20.83;nan;94255.22;5601594;28;1740;-69
2022/09/27 01:09:58;;;;;;;;;;;;;;;20.86;nan;94219.22;5598911;28;1554;-71
2022/09/27 01:12:46;;;;;;;;;;;;;;;20.81;nan;94246.63;5597012;28;1628;-65
2022/09/27 01:15:34;;;;;;;;;;;;;;;20.81;nan;94203.09;5601174;28;1826;-70
2022/09/27 01:18:23;;;;;;;;;;;;;;;20.81;nan;94230.63;5613111;28;1901;-68
2022/09/27 01:21:20;;;;;;;;;;;;;;;20.84;nan;94245.38;5607544;28;1836;-68
2022/09/27 01:24:12;;;;;;;;;;;;;;;20.84;nan;94214.13;5608324;28;1459;-68
2022/09/27 01:27:13;;;;;;;;;;;;;;;20.84;nan;94234.69;5604317;28;1762;-69
2022/09/27 01:30:14;;;;;;;;;;;;;;;20.85;nan;94241.63;5600368;28;1602;-68
2022/09/27 01:33:11;;;;;;;;;;;;;;;20.88;nan;94214.47;5610785;28;1556;-69
2022/09/27 01:36:05;;;;;;;;;;;;;;;20.88;nan;94220.63;5604821;28;1544;-69
2022/09/27 01:38:56;;;;;;;;;;;;;;;20.87;nan;94223.53;5606973;28;1987;-69
2022/09/27 01:41:43;;;;;;;;;;;;;;;20.85;nan;94220.28;5627124;28;1396;-74
2022/09/27 01:44:29;;;;;;;;;;;;;;;20.85;nan;94214.94;5605770;28;1520;-76
2022/09/27 01:47:16;;;;;;;;;;;;;;;20.87;nan;94202.97;5602191;28;1447;-71
2022/09/27 01:50:01;;;;;;;;;;;;;;;20.88;nan;94219.81;5606927;28;1726;-68
2022/09/27 01:52:48;;;;;;;;;;;;;;;20.87;nan;94229.69;5611747;28;1522;-69
2022/09/27 01:55:32;;;;;;;;;;;;;;;20.88;nan;94214.47;5605885;28;1542;-69
2022/09/27 01:58:17;;;;;;;;;;;;;;;20.89;nan;94210.78;5597038;28;1914;-70
2022/09/27 02:01:01;;;;;;;;;;;;;;;20.89;nan;94216.13;5588611;28;1758;-68
2022/09/27 02:03:47;;;;;;;;;;;;;;;-145.88;100.00;58037.16;5607235;28;1420;-65
2022/09/27 02:06:34;;;;;;;;;;;;;;;20.83;nan;94211.69;5612048;28;1535;-65
2022/09/27 02:09:19;;;;;;;;;;;;;;;20.83;nan;94212.50;5605541;28;1557;-65
2022/09/27 02:12:04;;;;;;;;;;;;;;;20.82;nan;94199.38;5595026;28;1788;-65
2022/09/27 02:14:50;;;;;;;;;;;;;;;20.82;nan;94188.69;5613204;28;1505;-67
2022/09/27 02:17:40;;;;;;;;;;;;;;;20.82;nan;94210.06;5612440;28;1906;-66
2022/09/27 02:20:27;;;;;;;;;;;;;;;20.79;nan;94185.44;5605764;28;1602;-66
2022/09/27 02:23:14;;;;;;;;;;;;;;;20.81;nan;94181.75;5588563;28;1774;-68
2022/09/27 02:25:58;;;;;;;;;;;;;;;20.81;nan;94195.09;5616116;28;1560;-79
2022/09/27 02:28:44;;;;;;;;;;;;;;;-145.88;100.00;58037.16;5619019;28;1761;-66
2022/09/27 02:31:26;;;;;;;;;;;;;;;20.80;nan;94148.91;5604756;28;1572;-68
2022/09/27 02:34:13;;;;;;;;;;;;;;;20.79;nan;94174.75;5596915;28;1758;-65
2022/09/27 02:36:58;;;;;;;;;;;;;;;20.78;nan;94161.66;5608563;28;1620;-66
2022/09/27 02:39:41;;;;;;;;;;;;;;;20.78;nan;94135.78;5614341;28;1910;-67
2022/09/27 02:42:24;;;;;;;;;;;;;;;20.78;nan;94119.75;5623622;28;1439;-65
2022/09/27 02:45:08;;;;;;;;;;;;;;;20.78;nan;94098.41;5592532;28;1241;-65
2022/09/27 02:47:57;;;;;;;;;;;;;;;20.78;nan;94119.75;5622296;28;1684;-67
2022/09/27 02:50:59;;;;;;;;;;;;;;;20.77;nan;94128.81;5621639;28;1901;-64
2022/09/27 02:53:49;;;;;;;;;;;;;;;20.77;nan;94128.81;5621190;28;1838;-64
2022/09/27 02:56:35;;;;;;;;;;;;;;;20.77;nan;94134.16;5603658;28;1749;-67
2022/09/27 02:59:22;;;;;;;;;;;;;;;20.78;nan;94130.44;5620561;28;1982;-64
2022/09/27 03:02:10;;;;;;;;;;;;;;;20.77;nan;94144.84;5612433;28;1595;-69
2022/09/27 03:04:57;;;;;;;;;;;;;;;20.39;nan;94131.97;5604453;28;1680;-62
2022/09/27 03:07:40;;;;;;;;;;;;;;;20.12;nan;94142.25;5614266;28;1785;-62
2022/09/27 03:10:25;;;;;;;;;;;;;;;20.06;nan;94121.81;5613194;28;1793;-63
2022/09/27 03:13:08;;;;;;;;;;;;;;;19.90;nan;94107.31;5612317;28;1742;-62
2022/09/27 03:15:51;;;;;;;;;;;;;;;-145.88;100.00;58037.16;5600353;28;1543;-62
2022/09/27 03:18:33;;;;;;;;;;;;;;;19.75;nan;94073.09;5616228;28;1901;-62
2022/09/27 03:21:16;;;;;;;;;;;;;;;19.59;nan;94085.22;5595463;28;1559;-63
2022/09/27 03:23:59;;;;;;;;;;;;;;;19.58;nan;94082.81;5622584;28;1779;-63
2022/09/27 03:26:43;;;;;;;;;;;;;;;19.58;nan;94067.63;5631400;28;1595;-63
2022/09/27 03:29:26;;;;;;;;;;;;;;;-145.88;100.00;58037.16;5620734;28;1329;-63
2022/09/27 03:32:09;;;;;;;;;;;;;;;19.30;nan;94070.06;5608042;28;1488;-63
2022/09/27 03:34:53;;;;;;;;;;;;;;;19.30;nan;94086.03;5619370;28;1468;-70
2022/09/27 03:37:36;;;;;;;;;;;;;;;19.88;nan;94067.53;5609703;28;1910;-69
2022/09/27 03:40:19;;;;;;;;;;;;;;;19.74;nan;94081.31;5606240;28;1756;-63
2022/09/27 03:43:03;;;;;;;;;;;;;;;19.50;nan;94065.25;5609071;28;1523;-65
2022/09/27 03:45:46;;;;;;;;;;;;;;;19.76;nan;94064.06;5615621;28;1420;-69
2022/09/27 03:48:30;;;;;;;;;;;;;;;20.11;nan;94065.94;5624188;28;1423;-65
2022/09/27 03:51:13;;;;;;;;;;;;;;;19.98;nan;94060.84;5610932;28;1636;-66
2022/09/27 03:53:55;;;;;;;;;;;;;;;19.56;nan;94074.22;5605054;28;1688;-64
2022/09/27 03:56:38;;;;;;;;;;;;;;;19.52;nan;94073.84;5607622;28;1682;-65
2022/09/27 03:59:23;;;;;;;;;;;;;;;19.45;nan;94089.91;5612939;28;1914;-64
2022/09/27 04:02:05;;;;;;;;;;;;;;;19.53;nan;94095.97;5610379;28;1564;-64
2022/09/27 04:04:49;;;;;;;;;;;;;;;19.29;nan;94074.56;5607538;28;1308;-63
2022/09/27 04:07:32;;;;;;;;;;;;;;;19.25;nan;94100.00;5596516;28;1433;-65
2022/09/27 04:10:15;;;;;;;;;;;;;;;-145.88;100.00;58037.16;5600851;28;1169;-64
2022/09/27 04:12:57;;;;;;;;;;;;;;;19.37;nan;94070.75;5605377;28;1761;-63
2022/09/27 04:15:42;;;;;;;;;;;;;;;19.39;nan;94080.16;5614805;28;1594;-62
2022/09/27 04:18:26;;;;;;;;;;;;;;;19.38;nan;94062.56;5595952;28;1898;-63
2022/09/27 04:21:09;;;;;;;;;;;;;;;19.34;nan;94077.34;5616122;28;1691;-63
2022/09/27 04:23:52;;;;;;;;;;;;;;;19.30;nan;94065.53;5611899;28;1813;-62
2022/09/27 04:26:36;;;;;;;;;;;;;;;19.41;nan;94055.97;5619205;28;1110;-63
2022/09/27 04:29:18;;;;;;;;;;;;;;;19.33;nan;94070.41;5611126;28;1087;-63
2022/09/27 04:32:03;;;;;;;;;;;;;;;19.25;nan;94006.00;5620772;28;1080;-63
2022/09/27 04:37:46;;;;;;;;;;;;;;;19.13;nan;94069.88;5619590;28;1144;-63
2022/09/27 04:40:29;;;;;;;;;;;;;;;19.27;nan;94081.16;5609529;28;1918;-64
2022/09/27 04:43:12;;;;;;;;;;;;;;;19.28;nan;94072.13;5617749;28;1112;-63
2022/09/27 04:45:54;;;;;;;;;;;;;;;19.11;nan;94083.41;5618312;28;999;-63
2022/09/27 04:48:39;;;;;;;;;;;;;;;19.19;nan;94085.75;5618607;28;1027;-63
2022/09/27 04:51:22;;;;;;;;;;;;;;;19.08;nan;94073.19;5609103;28;1307;-64
2022/09/27 04:54:04;;;;;;;;;;;;;;;19.10;nan;94096.94;5619862;28;1234;-65
2022/09/27 04:56:48;;;;;;;;;;;;;;;19.09;nan;94100.63;5619910;28;996;-64
2022/09/27 04:59:31;;;;;;;;;;;;;;;19.05;nan;94104.78;5619247;28;2004;-67
2022/09/27 05:02:14;;;;;;;;;;;;;;;19.02;nan;94100.72;5614054;28;1106;-65
2022/09/27 05:04:59;;;;;;;;;;;;;;;19.01;nan;94099.09;5618376;28;1058;-63
2022/09/27 05:07:42;;;;;;;;;;;;;;;19.02;nan;94089.28;5619684;28;1159;-69
2022/09/27 05:10:25;;;;;;;;;;;;;;;-145.88;100.00;58037.16;5619575;28;1011;-63
2022/09/27 05:13:08;;;;;;;;;;;;;;;18.94;32.81;94098.38;5614824;28;1107;-63
2022/09/27 05:15:51;;;;;;;;;;;;;;;18.97;nan;94097.91;5615747;28;1472;-62
2022/09/27 05:18:34;;;;;;;;;;;;;;;18.97;nan;94092.59;5619625;28;1929;-63
2022/09/27 05:21:18;;;;;;;;;;;;;;;19.00;nan;94076.97;5619686;28;1035;-63
2022/09/27 05:24:01;;;;;;;;;;;;;;;-145.88;100.00;58037.16;5619320;28;984;-62
2022/09/27 05:26:45;;;;;;;;;;;;;;;19.05;nan;94078.16;5609978;28;1205;-64
2022/09/27 05:29:29;;;;;;;;;;;;;;;18.97;nan;94072.09;5619693;28;1087;-64
2022/09/27 05:32:11;;;;;;;;;;;;;;;18.91;nan;94147.53;5619593;28;1035;-66
2022/09/27 05:34:54;;;;;;;;;;;;;;;18.93;nan;94086.09;5618844;28;1035;-63
2022/09/27 05:37:39;;;;;;;;;;;;;;;18.88;nan;94068.13;5610412;28;1239;-63
2022/09/27 05:40:23;;;;;;;;;;;;;;;18.90;nan;94087.34;5618950;28;1976;-63
2022/09/27 05:43:22;;;;;;;;;;;;;;;-145.88;100.00;58037.16;5618493;28;1079;-63
2022/09/27 05:46:05;;;;;;;;;;;;;;;18.90;nan;94098.00;5619459;28;1600;-63
2022/09/27 05:48:48;;;;;;;;;;;;;;;18.86;nan;94096.81;5610126;28;1299;-64
2022/09/27 05:51:31;;;;;;;;;;;;;;;18.84;nan;94077.59;5619025;28;1016;-63
2022/09/27 05:54:15;;;;;;;;;;;;;;;18.82;nan;94079.66;5618441;28;1326;-63
2022/09/27 05:56:59;;;;;;;;;;;;;;;18.85;nan;94095.19;5618023;28;1338;-63
2022/09/27 05:59:41;;;;;;;;;;;;;;;18.86;nan;94090.69;5609368;28;1905;-63
2022/09/27 06:02:24;;;;;;;;;;;;;;;-145.88;100.00;58037.16;5618933;28;1027;-63
2022/09/27 06:05:07;;;;;;;;;;;;;;;-145.88;100.00;58037.16;5618232;28;1115;-64
2022/09/27 06:07:58;;;;;;;;;;;;;;;18.97;nan;94093.41;5618354;28;1108;-63
2022/09/27 06:10:42;;;;;;;;;;;;;;;18.93;nan;94076.25;5610120;28;1420;-63
2022/09/27 06:13:25;;;;;;;;;;;;;;;-145.88;100.00;58037.16;5617961;28;1192;-63
2022/09/27 06:16:09;;;;;;;;;;;;;;;18.89;nan;94074.25;5618872;28;1136;-63
2022/09/27 06:18:52;;;;;;;;;;;;;;;18.89;nan;94069.75;5619014;28;1110;-63
2022/09/27 06:21:36;;;;;;;;;;;;;;;18.91;nan;94077.50;5614381;28;1910;-62
2022/09/27 06:24:19;;;;;;;;;;;;;;;18.90;nan;94070.59;5614566;28;1155;-63
2022/09/27 06:27:03;;;;;;;;;;;;;;;18.84;nan;94066.97;5618816;28;1068;-63
2022/09/27 06:29:46;;;;;;;;;;;;;;;18.88;nan;94062.00;5619044;28;1167;-63
2022/09/27 06:32:29;;;;;;;;;;;;;;;18.91;nan;94061.53;5615814;28;1337;-66
2022/09/27 06:35:12;;;;;;;;;;;;;;;18.94;nan;94064.56;5613619;28;1125;-68
2022/09/27 06:37:55;;;;;;;;;;;;;;;18.92;nan;94074.66;5619441;28;1066;-63
2022/09/27 06:40:38;;;;;;;;;;;;;;;18.94;nan;94077.88;5618526;28;1910;-63
2022/09/27 06:43:23;;;;;;;;;;;;;;;18.93;nan;94070.94;5618325;28;995;-63
2022/09/27 06:46:06;;;;;;;;;;;;;;;18.92;nan;94074.66;5609724;28;1252;-64
2022/09/27 06:48:49;;;;;;;;;;;;;;;18.90;nan;94076.72;5618096;28;1102;-64
2022/09/27 06:51:32;;;;;;;;;;;;;;;18.91;nan;94077.50;5619056;28;1244;-64
2022/09/27 06:54:15;;;;;;;;;;;;;;;18.94;nan;94077.88;5617967;28;1232;-63
2022/09/27 06:56:58;;;;;;;;;;;;;;;18.91;nan;94078.31;5609020;28;1206;-63
2022/09/27 07:02:46;;;;;;;;;;;;;;;18.91;nan;94066.88;5618374;28;992;-62
2022/09/27 07:05:29;;;;;;;;;;;;;;;18.94;nan;148828.78;5617903;28;1093;-62
2022/09/27 07:08:12;;;;;;;;;;;;;;;18.87;nan;94066.50;5609231;28;1380;-63
2022/09/27 07:10:55;;;;;;;;;;;;;;;18.88;nan;94073.44;5618216;28;1006;-63
2022/09/27 07:13:41;;;;;;;;;;;;;;;-144.57;nan;94071.38;5618547;28;1094;-65
2022/09/27 07:16:26;;;;;;;;;;;;;;;18.81;nan;94083.38;5618090;28;1107;-64
2022/09/27 07:19:10;;;;;;;;;;;;;;;18.84;nan;94082.13;5610431;28;1165;-63
2022/09/27 07:21:53;;;;;;;;;;;;;;;18.92;nan;94068.47;5622348;28;1906;-63
2022/09/27 07:24:36;;;;;;;;;;;;;;;18.91;nan;94062.34;5622210;28;1052;-63
2022/09/27 07:27:19;;;;;;;;;;;;;;;18.91;nan;94067.69;5621596;28;1058;-63
2022/09/27 07:30:01;;;;;;;;;;;;;;;18.89;nan;94063.59;5613642;28;1175;-63
2022/09/27 07:32:46;;;;;;;;;;;;;;;-145.88;100.00;58037.16;5621221;28;1203;-64
2022/09/27 07:35:29;;;;;;;;;;;;;;;18.84;nan;94072.28;5621523;28;1108;-63
2022/09/27 07:38:12;;;;;;;;;;;;;;;18.82;nan;94074.34;5621866;28;1023;-66
2022/09/27 07:40:55;;;;;;;;;;;;;;;18.83;nan;94070.63;5616406;28;1906;-62
2022/09/27 07:43:38;;;;;;;;;;;;;;;18.86;nan;94086.16;5617584;28;1099;-63
2022/09/27 07:46:21;;;;;;;;;;;;;;;18.89;nan;94101.69;5621475;28;1011;-63
2022/09/27 07:49:05;;;;;;;;;;;;;;;18.85;nan;94100.50;5620984;28;1052;-63
2022/09/27 07:51:48;;;;;;;;;;;;;;;18.84;nan;94104.22;5618052;28;1056;-64
2022/09/27 07:54:31;;;;;;;;;;;;;;;-145.88;100.00;58037.16;5616281;28;1062;-63
2022/09/27 07:57:14;;;;;;;;;;;;;;;18.79;nan;94105.91;5621267;28;1075;-63
2022/09/27 07:59:57;;;;;;;;;;;;;;;18.75;nan;94101.03;5621370;28;1969;-63
2022/09/27 08:02:40;;;;;;;;;;;;;;;18.77;nan;94098.97;5621298;28;1027;-68
2022/09/27 08:05:24;;;;;;;;;;;;;;;18.76;nan;94086.69;5612131;28;1196;-63
2022/09/27 08:08:07;;;;;;;;;;;;;;;18.79;nan;94084.63;5621411;28;980;-63
2022/09/27 08:10:50;;;;;;;;;;;;;;;18.80;nan;94103.03;5620740;28;1155;-64
2022/09/27 08:13:33;;;;;;;;;;;;;;;18.84;nan;94076.81;5621739;28;1019;-64
2022/09/27 08:16:16;;;;;;;;;;;;;;;-145.88;100.00;58037.16;5612298;28;1290;-64
2022/09/27 08:18:59;;;;;;;;;;;;;;;18.88;nan;94067.31;5620762;28;1031;-63
2022/09/27 08:21:43;;;;;;;;;;;;;;;18.89;nan;94059.09;5621019;28;1918;-62
2022/09/27 08:24:26;;;;;;;;;;;;;;;-145.88;100.00;58037.16;5620834;28;1016;-64
2022/09/27 08:27:08;;;;;;;;;;;;;;;18.98;0.00;94063.09;5612310;28;1229;-63
2022/09/27 08:29:53;;;;;;;;;;;;;;;19.04;nan;94108.50;5620527;28;964;-63
2022/09/27 08:32:37;;;;;;;;;;;;;;;19.04;nan;94093.34;5620416;28;1175;-65
2022/09/27 08:35:19;;;;;;;;;;;;;;;19.06;32.81;94059.28;5620504;28;1264;-63
2022/09/27 08:38:04;;;;;;;;;;;;;;;19.03;nan;148849.19;5611664;28;1080;-63
2022/09/27 08:40:53;;;;;;;;;;;;;;;18.98;32.82;94047.13;5619898;28;1906;-64
2022/09/27 08:43:40;;;;;;;;;;;;;;;19.05;nan;94051.53;5620889;28;1023;-63
2022/09/27 08:46:28;;;;;;;;;;;;;;;19.06;nan;94047.84;5620454;28;1035;-65
2022/09/27 08:49:13;;;;;;;;;;;;;;;19.04;nan;94012.66;5613766;28;1384;-67
2022/09/27 08:51:58;;;;;;;;;;;;;;;19.05;nan;94031.06;5619581;28;1321;-67
2022/09/27 08:54:43;;;;;;;;;;;;;;;19.14;nan;94055.50;5619858;28;1043;-62
2022/09/27 08:57:26;;;;;;;;;;;;;;;19.15;nan;94035.81;5620824;28;1033;-64
2022/09/27 09:00:11;;;;;;;;;;;;;;;19.15;nan;94035.81;5615844;28;1206;-63
2022/09/27 09:02:55;;;;;;;;;;;;;;;19.20;nan;94038.63;5614762;28;1981;-64
2022/09/27 09:05:38;;;;;;;;;;;;;;;19.25;nan;94068.06;5620302;28;991;-63
2022/09/27 09:08:26;;;;;;;;;;;;;;;19.17;nan;94060.38;5620205;28;1105;-61
2022/09/27 09:14:23;;;;;;;;;;;;;;;19.13;nan;94000.66;5614658;28;1238;-63
2022/09/27 09:17:11;;;;;;;;;;;;;;;-145.88;100.00;58037.16;5619467;28;1342;-63
2022/09/27 09:20:03;;;;;;;;;;;;;;;19.20;nan;94022.66;5620189;28;1012;-62
2022/09/27 09:22:53;;;;;;;;;;;;;;;19.13;nan;93919.06;5615397;28;1905;-62
2022/09/27 09:25:41;;;;;;;;;;;;;;;19.14;nan;94028.88;5614525;28;1093;-68
2022/09/27 09:28:32;;;;;;;;;;;;;;;19.21;nan;94030.41;5619447;28;1166;-62
2022/09/27 09:31:20;;;;;;;;;;;;;;;19.19;nan;94031.69;5619168;28;1066;-62
2022/09/27 09:34:09;;;;;;;;;;;;;;;19.17;nan;94034.56;5614951;28;1565;-63
2022/09/27 09:36:56;;;;;;;;;;;;;;;-145.88;100.00;58037.16;5614623;28;1064;-64
2022/09/27 09:39:42;;;;;;;;;;;;;;;19.11;nan;148870.81;5619149;28;1136;-65
2022/09/27 09:42:29;;;;;;;;;;;;;;;19.17;nan;94012.44;5618828;28;1973;-62
2022/09/27 09:45:17;;;;;;;;;;;;;;;-145.88;100.00;58037.16;5615816;28;1466;-64
2022/09/27 09:48:02;;;;;;;;;;;;;;;19.19;nan;94005.06;5613814;28;1419;-62
2022/09/27 09:50:47;;;;;;;;;;;;;;;19.19;nan;94021.03;5618935;28;984;-65
2022/09/27 09:53:34;;;;;;;;;;;;;;;19.19;nan;94021.03;5618541;28;1232;-63
2022/09/27 09:56:20;;;;;;;;;;;;;;;19.17;nan;94028.44;5619254;28;1015;-64
2022/09/27 09:59:06;;;;;;;;;;;;;;;19.19;nan;94021.03;5610525;28;1200;-62
2022/09/27 10:01:54;;;;;;;;;;;;;;;19.19;nan;94015.72;5618557;28;1964;-63
2022/09/27 10:04:36;;;;;;;;;;;;;;;19.20;32.81;94012.81;5618985;28;992;-67
2022/09/27 10:07:21;;;;;;;;;;;;;;;19.24;nan;94012.38;5618166;28;1108;-63
2022/09/27 10:10:05;;;;;;;;;;;;;;;19.27;nan;61370.69;5610010;28;1436;-63
2022/09/27 10:12:49;;;;;;;;;;;;;;;-145.88;100.00;58037.16;5618768;28;1035;-63
2022/09/27 10:15:31;;;;;;;;;;;;;;;19.26;nan;94005.75;5618514;28;1024;-67
2022/09/27 10:18:19;;;;;;;;;;;;;;;19.30;nan;94028.25;5620090;28;971;-63
2022/09/27 10:21:04;;;;;;;;;;;;;;;19.29;nan;61372.84;5612424;28;1879;-63
2022/09/27 10:24:04;;;;;;;;;;;;;;;19.27;nan;61371.22;5620538;28;1047;-63
2022/09/27 10:26:50;;;;;;;;;;;;;;;19.31;nan;61375.00;5621753;28;798;-63
2022/09/27 10:29:34;;;;;;;;;;;;;;;19.32;nan;93978.22;5621641;28;1083;-63
2022/09/27 10:32:22;;;;;;;;;;;;;;;19.30;nan;93969.66;5610884;28;1415;-64
2022/09/27 10:35:32;;;;;;;;;;;;;;;19.37;nan;94002.31;5620831;28;1108;-62
2022/09/27 10:38:22;;;;;;;;;;;;;;;19.35;nan;94009.75;5620468;28;1091;-63
2022/09/27 10:41:16;;;;;;;;;;;;;;;19.35;nan;93999.09;5620165;28;723;-64
2022/09/27 10:44:18;;;;;;;;;;;;;;;19.35;nan;61379.31;5612029;28;1244;-63
2022/09/27 10:47:06;;;;;;;;;;;;;;;19.37;nan;94023.63;5620070;28;778;-64
2022/09/27 10:49:51;;;;;;;;;;;;;;;19.38;nan;94030.59;5620396;28;1051;-64
2022/09/27 10:52:35;;;;;;;;;;;;;;;19.40;nan;93985.88;5621155;28;1315;-63
2022/09/27 10:55:21;;;;;;;;;;;;;;;19.43;nan;93979.28;5616862;28;1231;-63
2022/09/27 10:58:04;;;;;;;;;;;;;;;19.44;nan;93971.06;5625612;28;1252;-63
2022/09/27 11:00:55;;;;;;;;;;;;;;;19.42;nan;93951.84;5624507;28;1071;-63
2022/09/27 11:03:45;;;;;;;;;;;;;;;19.43;nan;93932.16;5625166;28;1910;-63
2022/09/27 11:06:30;;;;;;;;;;;;;;;19.47;nan;93942.34;5615465;28;1342;-63
2022/09/27 11:09:22;;;;;;;;;;;;;;;19.45;nan;93950.56;5623918;28;991;-63
2022/09/27 11:12:08;;;;;;;;;;;;;;;19.43;nan;93948.16;5623642;28;1041;-62
2022/09/27 11:14:56;;;;;;;;;;;;;;;19.43;nan;61387.97;5624735;28;1039;-62
2022/09/27 11:17:44;;;;;;;;;;;;;;;19.41;nan;93923.59;5615658;28;1152;-63
2022/09/27 11:20:31;;;;;;;;;;;;;;;19.44;nan;93923.13;5623894;28;1063;-62
2022/09/27 11:23:31;;;;;;;;;;;;;;;19.45;nan;93935.38;5623526;28;1987;-63
2022/09/27 11:26:24;;;;;;;;;;;;;;;19.45;nan;93940.72;5624278;28;1347;-63
2022/09/27 11:29:14;;;;;;;;;;;;;;;19.48;nan;93954.63;5614451;28;1392;-63
2022/09/27 11:32:05;;;;;;;;;;;;;;;19.50;nan;93920.56;5622793;28;736;-63
2022/09/27 11:35:00;;;;;;;;;;;;;;;19.51;nan;93901.69;5623893;28;735;-62
2022/09/27 11:37:49;;;;;;;;;;;;;;;19.54;nan;93906.56;5623666;28;1163;-63
2022/09/27 11:40:35;;;;;;;;;;;;;;;19.53;nan;93920.94;5614580;28;1491;-63
2022/09/27 11:43:29;;;;;;;;;;;;;;;19.52;nan;93951.28;5623705;28;1898;-63
2022/09/27 11:46:17;;;;;;;;;;;;;;;19.50;nan;93936.56;5622553;28;1007;-63
2022/09/27 11:49:22;;;;;;;;;;;;;;;-144.57;32.81;93937.84;5622860;28;1003;-63
2022/09/27 11:52:16;;;;;;;;;;;;;;;19.47;nan;93878.41;5611483;28;1287;-63
2022/09/27 11:55:14;;;;;;;;;;;;;;;19.53;nan;93893.50;5622981;28;1075;-63
2022/09/27 11:58:00;;;;;;;;;;;;;;;19.53;nan;93909.50;5620995;28;1120;-63
2022/09/27 12:00:52;;;;;;;;;;;;;;;19.55;nan;93886.06;5623002;28;1019;-63
2022/09/27 12:03:52;;;;;;;;;;;;;;;19.57;nan;93868.81;5613225;28;1905;-63
2022/09/27 12:06:41;;;;;;;;;;;;;;;19.57;nan;93868.81;5621392;28;1024;-64
2022/09/27 12:09:28;;;;;;;;;;;;;;;19.61;nan;61407.47;5623966;28;1003;-62
2022/09/27 12:12:13;;;;;;;;;;;;;;;19.61;nan;61407.47;5624029;28;1035;-62
2022/09/27 12:14:58;;;;;;;;;;;;;;;19.62;nan;148997.00;5614277;28;1244;-63
2022/09/27 12:17:48;;;;;;;;;;;;;;;19.64;nan;93874.84;5623711;28;905;-62
2022/09/27 12:20:34;;;;;;;;;;;;;;;19.64;nan;93864.19;5623120;28;723;-64
2022/09/27 12:23:20;;;;;;;;;;;;;;;19.63;nan;61409.63;5622376;28;1905;-64
2022/09/27 12:26:04;;;;;;;;;;;;;;;19.65;nan;93876.44;5613964;28;1130;-62
2022/09/27 12:28:51;;;;;;;;;;;;;;;19.71;nan;93928.00;5621897;28;984;-63
2022/09/27 12:31:36;;;;;;;;;;;;;;;19.75;nan;93811.91;5622517;28;1082;-63
2022/09/27 12:34:23;;;;;;;;;;;;;;;19.79;nan;93818.38;5623206;28;992;-63
2022/09/27 12:37:11;;;;;;;;;;;;;;;-145.88;100.00;58037.16;5613438;28;1534;-63
2022/09/27 12:39:58;;;;;;;;;;;;;;;19.81;nan;93826.16;5622361;28;1599;-63
2022/09/27 12:42:45;;;;;;;;;;;;;;;19.80;nan;93819.19;5621004;28;1918;-64
2022/09/27 12:45:32;;;;;;;;;;;;;;;19.82;nan;93796.59;5620056;28;1031;-63
2022/09/27 12:48:20;;;;;;;;;;;;;;;19.84;nan;93799.84;5611471;28;1438;-63
2022/09/27 12:51:08;;;;;;;;;;;;;;;19.85;nan;93796.13;5619538;28;984;-63
2022/09/27 12:54:00;;;;;;;;;;;;;;;19.86;nan;93796.91;5619990;28;1423;-65
2022/09/27 12:56:50;;;;;;;;;;;;;;;19.89;nan;93801.81;5620519;28;1084;-64
2022/09/27 12:59:39;;;;;;;;;;;;;;;19.88;nan;93800.16;5610406;28;1258;-68
2022/09/27 13:02:41;;;;;;;;;;;;;;;19.89;nan;93802.59;5620404;28;1967;-63
2022/09/27 13:05:58;;;;;;;;;;;;;;;19.92;nan;93805.81;5619834;28;1723;-64
2022/09/27 13:08:53;;;;;;;;;;;;;;;-145.88;100.00;58037.16;5618013;28;1051;-64
2022/09/27 13:11:43;;;;;;;;;;;;;;;19.97;nan;93813.94;5610703;28;1358;-64
2022/09/27 13:14:27;;;;;;;;;;;;;;;19.98;nan;93799.56;5619665;28;1011;-65
2022/09/27 13:17:25;;;;;;;;;;;;;;;19.99;nan;93795.84;5619033;28;1283;-64
2022/09/27 13:20:32;;;;;;;;;;;;;;;20.00;nan;149092.56;5619127;28;1270;-63
2022/09/27 13:23:34;;;;;;;;;;;;;;;20.01;nan;93788.44;5595421;28;1918;-64
2022/09/27 13:26:42;;;;;;;;;;;;;;;20.02;nan;93795.38;5619611;28;1112;-64
2022/09/27 13:29:27;;;;;;;;;;;;;;;20.03;nan;93792.47;5619504;28;1111;-64
2022/09/27 13:32:21;;;;;;;;;;;;;;;20.03;nan;93786.31;5614929;28;1381;-64
2022/09/27 13:35:11;;;;;;;;;;;;;;;20.05;nan;93752.22;5614601;28;1354;-65
2022/09/27 13:37:57;;;;;;;;;;;;;;;20.05;nan;93769.03;5619574;28;1015;-63
2022/09/27 13:40:41;;;;;;;;;;;;;;;20.06;nan;93759.19;5619296;28;1019;-64
2022/09/27 13:43:40;;;;;;;;;;;;;;;20.07;nan;93777.59;5616486;28;1937;-68
2022/09/27 13:46:25;;;;;;;;;;;;;;;20.09;nan;93774.72;5612790;28;1247;-64
2022/09/27 13:49:15;;;;;;;;;;;;;;;20.09;nan;93790.72;5619203;28;1024;-64
2022/09/27 13:52:01;;;;;;;;;;;;;;;20.09;nan;93790.72;5617719;28;1394;-65
2022/09/27 13:54:50;;;;;;;;;;;;;;;20.09;nan;93801.38;5617385;28;1047;-66
2022/09/27 13:57:42;;;;;;;;;;;;;;;20.10;nan;93809.13;5613872;28;1206;-65
2022/09/27 14:00:27;;;;;;;;;;;;;;;20.10;nan;93809.13;5618809;28;1119;-64
2022/09/27 14:03:34;;;;;;;;;;;;;;;20.10;nan;93803.78;5618939;28;1976;-63
2022/09/27 14:06:19;;;;;;;;;;;;;;;20.11;nan;93794.75;5613691;28;1037;-64
2022/09/27 14:09:04;;;;;;;;;;;;;;;20.11;nan;93768.06;5613871;28;1006;-64
2022/09/27 14:11:52;;;;;;;;;;;;;;;20.13;nan;93791.03;5618752;28;818;-64
2022/09/27 14:14:36;;;;;;;;;;;;;;;20.13;nan;93802.50;5618524;28;1035;-64
2022/09/27 14:17:19;;;;;;;;;;;;;;;20.14;nan;93798.78;5618418;28;1055;-64
2022/09/27 14:20:06;;;;;;;;;;;;;;;20.14;nan;93792.66;5608577;28;1181;-64
2022/09/27 14:22:53;;;;;;;;;;;;;;;20.14;nan;93782.78;5618476;28;1027;-64
2022/09/27 14:25:38;;;;;;;;;;;;;;;20.14;nan;93771.31;5618192;28;1981;-64
2022/09/27 14:28:23;;;;;;;;;;;;;;;20.15;nan;93784.44;5620918;28;1003;-64
2022/09/27 14:31:06;;;;;;;;;;;;;;;20.15;nan;93784.44;5613363;28;1196;-63
2022/09/27 14:33:50;;;;;;;;;;;;;;;20.15;nan;93795.09;5622894;28;1071;-63
2022/09/27 14:39:36;;;;;;;;;;;;;;;20.14;nan;93766.78;5622916;28;1035;-63
2022/09/27 14:42:20;;;;;;;;;;;;;;;20.14;nan;93777.47;5612914;28;1093;-64
2022/09/27 14:45:06;;;;;;;;;;;;;;;20.13;nan;93791.03;5622737;28;1909;-63
2022/09/27 14:47:49;;;;;;;;;;;;;;;20.13;nan;93786.50;5623526;28;1043;-63
2022/09/27 14:50:34;;;;;;;;;;;;;;;20.14;nan;93776.66;5622364;28;999;-66
2022/09/27 14:53:22;;;;;;;;;;;;;;;20.11;nan;93788.59;5613242;28;1223;-63
2022/09/27 14:56:07;;;;;;;;;;;;;;;-145.88;100.00;58037.16;5622598;28;1074;-64
2022/09/27 14:58:55;;;;;;;;;;;;;;;20.10;nan;93797.66;5623704;28;1992;-64
2022/09/27 15:01:39;;;;;;;;;;;;;;;-145.88;100.00;58037.16;5622209;28;1043;-64
2022/09/27 15:04:23;;;;;;;;;;;;;;;20.07;nan;93803.47;5612479;28;1996;-66
2022/09/27 15:07:06;;;;;;;;;;;;;;;20.05;nan;93794.88;5622246;28;1021;-64
2022/09/27 15:09:51;;;;;;;;;;;;;;;20.01;nan;93789.22;5622340;28;1094;-62